sensor_id;sensor_type;location;lat;lon;timestamp;noise_LAeq;noise_LA_min;noise_LA_max;noise_LA01;noise_LA95
69613;Laerm;56819;52.382;4.758;2022-10-16T00:00:00;52.99;41.87;67.55;;
69613;Laerm;56819;52.382;4.758;2022-10-16T00:00:11;45.14;40.50;53.00;;
69613;Laerm;56819;52.382;4.758;2022-10-16T00:00:21;42.34;39.62;46.05;;
69613;Laerm;56819;52.382;4.758;2022-10-16T00:00:32;46.10;40.97;56.11;;
69613;Laerm;56819;52.382;4.758;2022-10-16T00:00:42;42.71;39.96;46.97;;
69613;Laerm;56819;52.382;4.758;2022-10-16T00:00:52;43.37;38.88;54.67;;
69613;Laerm;56819;52.382;4.758;2022-10-16T00:01:10;43.46;40.24;52.63;;
69613;Laerm;56819;52.382;4.758;2022-10-16T00:01:24;43.85;40.12;52.41;;
69613;Laerm;56819;52.382;4.758;2022-10-16T00:01:35;46.98;41.02;60.68;;
69613;Laerm;56819;52.382;4.758;2022-10-16T00:01:46;53.70;40.94;71.06;;
69613;Laerm;56819;52.382;4.758;2022-10-16T00:01:56;44.08;40.06;55.36;;
69613;Laerm;56819;52.382;4.758;2022-10-16T00:02:06;42.72;40.27;49.85;;
69613;Laerm;56819;52.382;4.758;2022-10-16T00:02:16;45.41;41.06;56.16;;
69613;Laerm;56819;52.382;4.758;2022-10-16T00:02:27;43.32;40.61;45.86;;
69613;Laerm;56819;52.382;4.758;2022-10-16T00:02:37;44.81;41.95;47.52;;
69613;Laerm;56819;52.382;4.758;2022-10-16T00:02:47;51.22;42.51;61.12;;
69613;Laerm;56819;52.382;4.758;2022-10-16T00:02:58;46.78;43.53;56.15;;
69613;Laerm;56819;52.382;4.758;2022-10-16T00:03:08;47.62;42.99;54.66;;
69613;Laerm;56819;52.382;4.758;2022-10-16T00:03:19;48.22;42.96;53.95;;
69613;Laerm;56819;52.382;4.758;2022-10-16T00:03:29;48.84;42.85;59.36;;
69613;Laerm;56819;52.382;4.758;2022-10-16T00:03:40;44.27;41.48;46.97;;
69613;Laerm;56819;52.382;4.758;2022-10-16T00:03:51;43.79;40.33;46.46;;
69613;Laerm;56819;52.382;4.758;2022-10-16T00:04:01;44.40;40.97;53.47;;
69613;Laerm;56819;52.382;4.758;2022-10-16T00:04:12;52.19;42.82;62.16;;
69613;Laerm;56819;52.382;4.758;2022-10-16T00:04:22;43.48;39.58;52.17;;
69613;Laerm;56819;52.382;4.758;2022-10-16T00:04:32;45.79;39.85;56.75;;
69613;Laerm;56819;52.382;4.758;2022-10-16T00:04:42;42.62;39.39;50.24;;
69613;Laerm;56819;52.382;4.758;2022-10-16T00:04:53;42.31;38.78;51.11;;
69613;Laerm;56819;52.382;4.758;2022-10-16T00:05:04;43.31;39.28;60.15;;
69613;Laerm;56819;52.382;4.758;2022-10-16T00:05:15;45.05;39.94;56.49;;
69613;Laerm;56819;52.382;4.758;2022-10-16T00:05:25;44.55;40.72;49.98;;
69613;Laerm;56819;52.382;4.758;2022-10-16T00:05:39;50.60;42.34;59.02;;
69613;Laerm;56819;52.382;4.758;2022-10-16T00:05:50;50.74;45.06;58.45;;
69613;Laerm;56819;52.382;4.758;2022-10-16T00:06:00;52.53;44.51;62.67;;
69613;Laerm;56819;52.382;4.758;2022-10-16T00:06:11;48.48;45.43;52.07;;
69613;Laerm;56819;52.382;4.758;2022-10-16T00:06:22;48.67;44.35;59.15;;
69613;Laerm;56819;52.382;4.758;2022-10-16T00:06:32;47.25;43.48;51.50;;
69613;Laerm;56819;52.382;4.758;2022-10-16T00:06:42;44.64;41.43;49.32;;
69613;Laerm;56819;52.382;4.758;2022-10-16T00:06:53;42.84;40.16;45.40;;
69613;Laerm;56819;52.382;4.758;2022-10-16T00:07:03;43.64;40.26;48.91;;
69613;Laerm;56819;52.382;4.758;2022-10-16T00:07:13;44.38;41.22;49.97;;
69613;Laerm;56819;52.382;4.758;2022-10-16T00:07:23;47.12;41.54;55.44;;
69613;Laerm;56819;52.382;4.758;2022-10-16T00:07:33;48.77;41.13;59.09;;
69613;Laerm;56819;52.382;4.758;2022-10-16T00:07:44;45.80;40.01;55.06;;
69613;Laerm;56819;52.382;4.758;2022-10-16T00:07:54;47.79;41.46;54.42;;
69613;Laerm;56819;52.382;4.758;2022-10-16T00:08:05;44.76;41.49;49.71;;
69613;Laerm;56819;52.382;4.758;2022-10-16T00:08:15;47.60;43.36;51.10;;
69613;Laerm;56819;52.382;4.758;2022-10-16T00:08:25;48.01;44.46;51.52;;
69613;Laerm;56819;52.382;4.758;2022-10-16T00:08:35;49.95;45.95;55.11;;
69613;Laerm;56819;52.382;4.758;2022-10-16T00:08:46;49.42;44.95;55.19;;
69613;Laerm;56819;52.382;4.758;2022-10-16T00:08:56;49.73;45.46;55.82;;
69613;Laerm;56819;52.382;4.758;2022-10-16T00:09:08;48.63;45.51;51.49;;
69613;Laerm;56819;52.382;4.758;2022-10-16T00:09:18;48.41;43.61;53.98;;
69613;Laerm;56819;52.382;4.758;2022-10-16T00:09:28;47.76;43.49;52.37;;
69613;Laerm;56819;52.382;4.758;2022-10-16T00:09:38;44.83;40.83;49.37;;
69613;Laerm;56819;52.382;4.758;2022-10-16T00:09:49;45.95;41.70;58.50;;
69613;Laerm;56819;52.382;4.758;2022-10-16T00:09:59;44.91;39.55;53.32;;
69613;Laerm;56819;52.382;4.758;2022-10-16T00:10:09;42.85;40.21;46.10;;
69613;Laerm;56819;52.382;4.758;2022-10-16T00:10:20;43.74;40.32;47.79;;
69613;Laerm;56819;52.382;4.758;2022-10-16T00:10:30;46.72;42.80;53.75;;
69613;Laerm;56819;52.382;4.758;2022-10-16T00:10:40;48.43;44.49;53.71;;
69613;Laerm;56819;52.382;4.758;2022-10-16T00:10:50;44.92;41.78;48.81;;
69613;Laerm;56819;52.382;4.758;2022-10-16T00:11:01;44.58;41.70;48.60;;
69613;Laerm;56819;52.382;4.758;2022-10-16T00:11:30;46.24;41.31;61.04;;
69613;Laerm;56819;52.382;4.758;2022-10-16T00:11:40;44.23;40.57;52.13;;
69613;Laerm;56819;52.382;4.758;2022-10-16T00:11:51;43.77;40.27;55.12;;
69613;Laerm;56819;52.382;4.758;2022-10-16T00:12:01;46.20;40.07;58.67;;
69613;Laerm;56819;52.382;4.758;2022-10-16T00:12:13;42.26;39.14;46.87;;
69613;Laerm;56819;52.382;4.758;2022-10-16T00:12:24;41.93;38.92;44.75;;
69613;Laerm;56819;52.382;4.758;2022-10-16T00:12:34;43.15;40.85;45.82;;
69613;Laerm;56819;52.382;4.758;2022-10-16T00:12:44;43.03;40.63;45.64;;
69613;Laerm;56819;52.382;4.758;2022-10-16T00:12:54;44.97;40.06;50.01;;
69613;Laerm;56819;52.382;4.758;2022-10-16T00:13:05;45.57;40.40;51.69;;
69613;Laerm;56819;52.382;4.758;2022-10-16T00:13:15;44.00;40.95;48.21;;
69613;Laerm;56819;52.382;4.758;2022-10-16T00:13:27;44.88;40.74;55.52;;
69613;Laerm;56819;52.382;4.758;2022-10-16T00:13:38;43.71;38.65;53.98;;
69613;Laerm;56819;52.382;4.758;2022-10-16T00:13:50;42.27;39.62;47.21;;
69613;Laerm;56819;52.382;4.758;2022-10-16T00:14:01;46.49;38.94;56.43;;
69613;Laerm;56819;52.382;4.758;2022-10-16T00:14:13;43.61;40.36;47.01;;
69613;Laerm;56819;52.382;4.758;2022-10-16T00:14:23;46.89;41.97;52.53;;
69613;Laerm;56819;52.382;4.758;2022-10-16T00:14:33;49.39;41.19;60.38;;
69613;Laerm;56819;52.382;4.758;2022-10-16T00:14:44;45.03;41.55;50.15;;
69613;Laerm;56819;52.382;4.758;2022-10-16T00:14:54;49.03;42.39;56.64;;
69613;Laerm;56819;52.382;4.758;2022-10-16T00:15:04;50.80;43.46;61.67;;
69613;Laerm;56819;52.382;4.758;2022-10-16T00:15:15;53.39;45.38;62.25;;
69613;Laerm;56819;52.382;4.758;2022-10-16T00:15:26;49.17;43.62;54.90;;
69613;Laerm;56819;52.382;4.758;2022-10-16T00:15:36;47.21;43.15;52.82;;
69613;Laerm;56819;52.382;4.758;2022-10-16T00:15:46;48.87;44.34;56.44;;
69613;Laerm;56819;52.382;4.758;2022-10-16T00:15:57;47.33;41.89;56.16;;
69613;Laerm;56819;52.382;4.758;2022-10-16T00:16:08;50.02;43.48;59.44;;
69613;Laerm;56819;52.382;4.758;2022-10-16T00:16:19;49.04;41.59;61.55;;
69613;Laerm;56819;52.382;4.758;2022-10-16T00:16:29;43.54;40.59;51.29;;
69613;Laerm;56819;52.382;4.758;2022-10-16T00:16:40;43.54;40.34;48.59;;
69613;Laerm;56819;52.382;4.758;2022-10-16T00:16:50;44.24;40.94;47.71;;
69613;Laerm;56819;52.382;4.758;2022-10-16T00:17:00;44.79;41.39;48.46;;
69613;Laerm;56819;52.382;4.758;2022-10-16T00:17:11;43.28;40.56;48.48;;
69613;Laerm;56819;52.382;4.758;2022-10-16T00:17:21;50.12;41.94;60.16;;
69613;Laerm;56819;52.382;4.758;2022-10-16T00:17:31;44.54;40.61;55.31;;
69613;Laerm;56819;52.382;4.758;2022-10-16T00:17:41;45.24;39.47;53.93;;
69613;Laerm;56819;52.382;4.758;2022-10-16T00:17:52;42.54;39.72;45.04;;
69613;Laerm;56819;52.382;4.758;2022-10-16T00:18:03;45.57;41.12;49.49;;
69613;Laerm;56819;52.382;4.758;2022-10-16T00:18:14;44.87;39.63;54.03;;
69613;Laerm;56819;52.382;4.758;2022-10-16T00:18:24;43.47;39.18;48.49;;
69613;Laerm;56819;52.382;4.758;2022-10-16T00:18:35;44.16;40.99;54.25;;
69613;Laerm;56819;52.382;4.758;2022-10-16T00:18:47;44.66;39.94;52.18;;
69613;Laerm;56819;52.382;4.758;2022-10-16T00:18:57;46.21;40.17;56.67;;
69613;Laerm;56819;52.382;4.758;2022-10-16T00:19:08;44.51;41.78;49.38;;
69613;Laerm;56819;52.382;4.758;2022-10-16T00:19:19;48.35;41.32;60.63;;
69613;Laerm;56819;52.382;4.758;2022-10-16T00:19:29;43.77;40.31;49.02;;
69613;Laerm;56819;52.382;4.758;2022-10-16T00:19:39;44.90;40.72;52.92;;
69613;Laerm;56819;52.382;4.758;2022-10-16T00:19:49;42.96;40.05;45.93;;
69613;Laerm;56819;52.382;4.758;2022-10-16T00:20:00;44.14;40.97;54.34;;
69613;Laerm;56819;52.382;4.758;2022-10-16T00:20:10;43.79;40.89;50.44;;
69613;Laerm;56819;52.382;4.758;2022-10-16T00:20:20;52.39;42.91;65.14;;
69613;Laerm;56819;52.382;4.758;2022-10-16T00:20:33;45.39;41.90;52.93;;
69613;Laerm;56819;52.382;4.758;2022-10-16T00:20:44;47.31;41.34;59.46;;
69613;Laerm;56819;52.382;4.758;2022-10-16T00:20:54;43.12;40.66;45.92;;
69613;Laerm;56819;52.382;4.758;2022-10-16T00:21:05;56.34;42.96;67.35;;
69613;Laerm;56819;52.382;4.758;2022-10-16T00:21:17;42.96;39.32;49.74;;
69613;Laerm;56819;52.382;4.758;2022-10-16T00:21:28;41.83;39.15;47.59;;
69613;Laerm;56819;52.382;4.758;2022-10-16T00:21:39;43.41;39.01;55.51;;
69613;Laerm;56819;52.382;4.758;2022-10-16T00:21:49;40.90;38.26;44.52;;
69613;Laerm;56819;52.382;4.758;2022-10-16T00:21:59;42.18;39.00;50.83;;
69613;Laerm;56819;52.382;4.758;2022-10-16T00:22:10;46.19;40.47;56.67;;
69613;Laerm;56819;52.382;4.758;2022-10-16T00:22:20;45.08;40.09;55.70;;
69613;Laerm;56819;52.382;4.758;2022-10-16T00:22:30;45.92;40.17;56.63;;
69613;Laerm;56819;52.382;4.758;2022-10-16T00:22:40;45.73;41.55;54.23;;
69613;Laerm;56819;52.382;4.758;2022-10-16T00:22:50;44.29;40.50;54.93;;
69613;Laerm;56819;52.382;4.758;2022-10-16T00:23:01;46.91;43.23;52.50;;
69613;Laerm;56819;52.382;4.758;2022-10-16T00:23:11;46.11;42.49;50.75;;
69613;Laerm;56819;52.382;4.758;2022-10-16T00:23:21;49.04;41.55;61.65;;
69613;Laerm;56819;52.382;4.758;2022-10-16T00:23:32;44.91;41.39;53.01;;
69613;Laerm;56819;52.382;4.758;2022-10-16T00:23:42;56.03;42.60;67.18;;
69613;Laerm;56819;52.382;4.758;2022-10-16T00:23:56;46.82;42.67;55.29;;
69613;Laerm;56819;52.382;4.758;2022-10-16T00:24:08;45.92;41.88;55.27;;
69613;Laerm;56819;52.382;4.758;2022-10-16T00:24:19;47.51;42.61;56.81;;
69613;Laerm;56819;52.382;4.758;2022-10-16T00:24:29;48.33;40.80;59.83;;
69613;Laerm;56819;52.382;4.758;2022-10-16T00:24:39;45.87;40.93;54.00;;
69613;Laerm;56819;52.382;4.758;2022-10-16T00:24:50;44.39;41.19;47.22;;
69613;Laerm;56819;52.382;4.758;2022-10-16T00:25:00;44.01;39.86;57.47;;
69613;Laerm;56819;52.382;4.758;2022-10-16T00:25:10;43.08;40.06;47.44;;
69613;Laerm;56819;52.382;4.758;2022-10-16T00:25:20;44.17;40.73;50.90;;
69613;Laerm;56819;52.382;4.758;2022-10-16T00:25:31;43.46;40.48;48.63;;
69613;Laerm;56819;52.382;4.758;2022-10-16T00:25:42;43.68;40.61;50.42;;
69613;Laerm;56819;52.382;4.758;2022-10-16T00:25:56;47.50;41.15;61.72;;
69613;Laerm;56819;52.382;4.758;2022-10-16T00:26:08;50.03;43.61;58.49;;
69613;Laerm;56819;52.382;4.758;2022-10-16T00:26:19;44.84;41.09;48.34;;
69613;Laerm;56819;52.382;4.758;2022-10-16T00:26:30;45.75;41.98;51.31;;
69613;Laerm;56819;52.382;4.758;2022-10-16T00:26:40;44.85;41.73;53.99;;
69613;Laerm;56819;52.382;4.758;2022-10-16T00:26:51;43.73;40.80;49.44;;
69613;Laerm;56819;52.382;4.758;2022-10-16T00:27:01;44.61;39.74;59.94;;
69613;Laerm;56819;52.382;4.758;2022-10-16T00:27:11;52.50;39.67;62.96;;
69613;Laerm;56819;52.382;4.758;2022-10-16T00:27:21;43.47;40.02;49.99;;
69613;Laerm;56819;52.382;4.758;2022-10-16T00:27:32;44.73;37.93;54.66;;
69613;Laerm;56819;52.382;4.758;2022-10-16T00:27:42;44.44;38.27;53.29;;
69613;Laerm;56819;52.382;4.758;2022-10-16T00:27:53;41.44;39.00;51.46;;
69613;Laerm;56819;52.382;4.758;2022-10-16T00:28:03;42.01;39.29;49.21;;
69613;Laerm;56819;52.382;4.758;2022-10-16T00:28:13;44.06;39.37;55.36;;
69613;Laerm;56819;52.382;4.758;2022-10-16T00:28:24;42.94;39.55;52.81;;
69613;Laerm;56819;52.382;4.758;2022-10-16T00:28:34;42.89;40.55;46.21;;
69613;Laerm;56819;52.382;4.758;2022-10-16T00:28:45;50.48;42.89;59.54;;
69613;Laerm;56819;52.382;4.758;2022-10-16T00:28:56;46.55;43.24;49.91;;
69613;Laerm;56819;52.382;4.758;2022-10-16T00:29:06;46.39;41.03;54.00;;
69613;Laerm;56819;52.382;4.758;2022-10-16T00:29:16;41.40;39.04;45.26;;
69613;Laerm;56819;52.382;4.758;2022-10-16T00:29:26;40.48;38.21;47.98;;
69613;Laerm;56819;52.382;4.758;2022-10-16T00:29:37;42.82;38.42;53.13;;
69613;Laerm;56819;52.382;4.758;2022-10-16T00:29:50;41.19;38.03;46.81;;
69613;Laerm;56819;52.382;4.758;2022-10-16T00:30:01;48.34;40.98;59.73;;
69613;Laerm;56819;52.382;4.758;2022-10-16T00:30:11;52.90;41.10;63.38;;
69613;Laerm;56819;52.382;4.758;2022-10-16T00:30:22;48.92;39.70;58.01;;
69613;Laerm;56819;52.382;4.758;2022-10-16T00:30:33;45.46;41.21;59.52;;
69613;Laerm;56819;52.382;4.758;2022-10-16T00:30:43;48.14;41.73;57.35;;
69613;Laerm;56819;52.382;4.758;2022-10-16T00:30:54;43.78;39.91;51.26;;
69613;Laerm;56819;52.382;4.758;2022-10-16T00:31:05;43.27;40.49;47.72;;
69613;Laerm;56819;52.382;4.758;2022-10-16T00:31:16;44.70;41.91;51.34;;
69613;Laerm;56819;52.382;4.758;2022-10-16T00:31:26;47.77;41.39;55.42;;
69613;Laerm;56819;52.382;4.758;2022-10-16T00:31:37;48.69;43.47;56.18;;
69613;Laerm;56819;52.382;4.758;2022-10-16T00:31:47;57.11;43.07;72.03;;
69613;Laerm;56819;52.382;4.758;2022-10-16T00:31:57;64.04;43.51;74.85;;
69613;Laerm;56819;52.382;4.758;2022-10-16T00:32:07;60.73;45.28;69.90;;
69613;Laerm;56819;52.382;4.758;2022-10-16T00:32:18;51.24;44.65;59.10;;
69613;Laerm;56819;52.382;4.758;2022-10-16T00:32:28;48.18;44.19;53.30;;
69613;Laerm;56819;52.382;4.758;2022-10-16T00:32:39;52.26;46.86;57.96;;
69613;Laerm;56819;52.382;4.758;2022-10-16T00:32:49;52.77;43.91;64.19;;
69613;Laerm;56819;52.382;4.758;2022-10-16T00:33:00;49.28;42.79;59.48;;
69613;Laerm;56819;52.382;4.758;2022-10-16T00:33:10;47.90;43.42;57.42;;
69613;Laerm;56819;52.382;4.758;2022-10-16T00:33:20;47.75;42.85;53.11;;
69613;Laerm;56819;52.382;4.758;2022-10-16T00:33:31;43.28;40.57;47.89;;
69613;Laerm;56819;52.382;4.758;2022-10-16T00:33:41;43.81;39.51;51.66;;
69613;Laerm;56819;52.382;4.758;2022-10-16T00:33:52;46.06;42.06;58.27;;
69613;Laerm;56819;52.382;4.758;2022-10-16T00:34:02;45.54;40.33;55.78;;
69613;Laerm;56819;52.382;4.758;2022-10-16T00:34:13;43.35;39.47;55.48;;
69613;Laerm;56819;52.382;4.758;2022-10-16T00:34:23;43.91;39.22;52.17;;
69613;Laerm;56819;52.382;4.758;2022-10-16T00:34:33;47.20;39.74;58.00;;
69613;Laerm;56819;52.382;4.758;2022-10-16T00:34:44;46.91;39.69;63.38;;
69613;Laerm;56819;52.382;4.758;2022-10-16T00:34:54;43.50;39.07;51.04;;
69613;Laerm;56819;52.382;4.758;2022-10-16T00:35:04;52.27;38.16;66.01;;
69613;Laerm;56819;52.382;4.758;2022-10-16T00:35:15;40.83;38.35;50.99;;
69613;Laerm;56819;52.382;4.758;2022-10-16T00:35:25;50.09;39.53;62.33;;
69613;Laerm;56819;52.382;4.758;2022-10-16T00:35:35;42.42;39.05;49.32;;
69613;Laerm;56819;52.382;4.758;2022-10-16T00:35:46;46.56;39.28;59.33;;
69613;Laerm;56819;52.382;4.758;2022-10-16T00:35:59;44.57;39.30;55.47;;
69613;Laerm;56819;52.382;4.758;2022-10-16T00:36:10;48.96;39.63;61.47;;
69613;Laerm;56819;52.382;4.758;2022-10-16T00:36:22;49.32;42.17;59.05;;
69613;Laerm;56819;52.382;4.758;2022-10-16T00:36:33;42.68;39.84;48.55;;
69613;Laerm;56819;52.382;4.758;2022-10-16T00:36:43;61.85;41.31;74.47;;
69613;Laerm;56819;52.382;4.758;2022-10-16T00:36:54;47.70;41.39;58.86;;
69613;Laerm;56819;52.382;4.758;2022-10-16T00:37:04;47.01;43.22;52.19;;
69613;Laerm;56819;52.382;4.758;2022-10-16T00:37:14;56.69;46.07;66.71;;
69613;Laerm;56819;52.382;4.758;2022-10-16T00:37:24;56.09;46.92;67.16;;
69613;Laerm;56819;52.382;4.758;2022-10-16T00:37:34;48.39;45.46;52.41;;
69613;Laerm;56819;52.382;4.758;2022-10-16T00:37:45;48.39;44.48;52.79;;
69613;Laerm;56819;52.382;4.758;2022-10-16T00:37:55;47.98;45.11;55.89;;
69613;Laerm;56819;52.382;4.758;2022-10-16T00:38:05;47.97;44.19;53.93;;
69613;Laerm;56819;52.382;4.758;2022-10-16T00:38:16;48.81;42.19;53.98;;
69613;Laerm;56819;52.382;4.758;2022-10-16T00:38:26;44.00;40.23;52.50;;
69613;Laerm;56819;52.382;4.758;2022-10-16T00:38:36;45.17;41.25;52.03;;
69613;Laerm;56819;52.382;4.758;2022-10-16T00:38:49;47.37;40.54;60.54;;
69613;Laerm;56819;52.382;4.758;2022-10-16T00:39:00;57.62;42.69;68.40;;
69613;Laerm;56819;52.382;4.758;2022-10-16T00:39:10;44.72;41.04;48.24;;
69613;Laerm;56819;52.382;4.758;2022-10-16T00:39:20;63.64;42.66;73.61;;
69613;Laerm;56819;52.382;4.758;2022-10-16T00:39:31;61.63;42.37;76.40;;
69613;Laerm;56819;52.382;4.758;2022-10-16T00:39:41;46.73;41.73;56.68;;
69613;Laerm;56819;52.382;4.758;2022-10-16T00:39:51;47.10;41.46;53.64;;
69613;Laerm;56819;52.382;4.758;2022-10-16T00:40:02;44.72;39.27;49.72;;
69613;Laerm;56819;52.382;4.758;2022-10-16T00:40:12;53.81;39.85;67.75;;
69613;Laerm;56819;52.382;4.758;2022-10-16T00:40:22;43.24;38.85;55.77;;
69613;Laerm;56819;52.382;4.758;2022-10-16T00:40:33;41.27;38.98;43.28;;
69613;Laerm;56819;52.382;4.758;2022-10-16T00:40:43;44.81;39.88;52.33;;
69613;Laerm;56819;52.382;4.758;2022-10-16T00:40:53;45.32;39.88;49.01;;
69613;Laerm;56819;52.382;4.758;2022-10-16T00:41:04;47.32;41.61;58.07;;
69613;Laerm;56819;52.382;4.758;2022-10-16T00:41:15;49.47;41.02;59.66;;
69613;Laerm;56819;52.382;4.758;2022-10-16T00:41:26;48.17;39.42;60.53;;
69613;Laerm;56819;52.382;4.758;2022-10-16T00:41:37;53.61;41.21;65.64;;
69613;Laerm;56819;52.382;4.758;2022-10-16T00:41:47;44.25;40.17;54.30;;
69613;Laerm;56819;52.382;4.758;2022-10-16T00:41:58;43.18;40.78;46.70;;
69613;Laerm;56819;52.382;4.758;2022-10-16T00:42:10;42.98;39.62;49.95;;
69613;Laerm;56819;52.382;4.758;2022-10-16T00:42:24;43.28;39.95;48.32;;
69613;Laerm;56819;52.382;4.758;2022-10-16T00:42:34;43.74;40.52;52.12;;
69613;Laerm;56819;52.382;4.758;2022-10-16T00:42:44;43.19;40.01;46.46;;
69613;Laerm;56819;52.382;4.758;2022-10-16T00:42:55;43.70;40.91;47.83;;
69613;Laerm;56819;52.382;4.758;2022-10-16T00:43:32;47.23;41.34;59.31;;
69613;Laerm;56819;52.382;4.758;2022-10-16T00:43:45;48.60;40.98;65.18;;
69613;Laerm;56819;52.382;4.758;2022-10-16T00:43:59;49.30;39.89;62.05;;
69613;Laerm;56819;52.382;4.758;2022-10-16T00:44:43;56.58;39.71;74.46;;
69613;Laerm;56819;52.382;4.758;2022-10-16T00:44:54;46.07;40.55;56.61;;
69613;Laerm;56819;52.382;4.758;2022-10-16T00:45:07;43.59;39.08;52.61;;
69613;Laerm;56819;52.382;4.758;2022-10-16T00:45:18;42.48;39.36;49.58;;
69613;Laerm;56819;52.382;4.758;2022-10-16T00:45:28;44.70;39.26;56.39;;
69613;Laerm;56819;52.382;4.758;2022-10-16T00:45:39;48.09;41.46;54.88;;
69613;Laerm;56819;52.382;4.758;2022-10-16T00:45:49;47.78;39.64;57.40;;
69613;Laerm;56819;52.382;4.758;2022-10-16T00:46:00;44.62;41.75;48.23;;
69613;Laerm;56819;52.382;4.758;2022-10-16T00:46:12;43.81;39.24;51.70;;
69613;Laerm;56819;52.382;4.758;2022-10-16T00:46:40;46.45;40.10;60.07;;
69613;Laerm;56819;52.382;4.758;2022-10-16T00:46:51;48.33;40.21;61.41;;
69613;Laerm;56819;52.382;4.758;2022-10-16T00:47:01;46.36;39.44;57.03;;
69613;Laerm;56819;52.382;4.758;2022-10-16T00:47:30;42.36;39.68;47.71;;
69613;Laerm;56819;52.382;4.758;2022-10-16T00:47:43;53.22;40.81;70.50;;
69613;Laerm;56819;52.382;4.758;2022-10-16T00:47:59;48.07;42.56;59.15;;
69613;Laerm;56819;52.382;4.758;2022-10-16T00:48:10;45.50;42.38;52.88;;
69613;Laerm;56819;52.382;4.758;2022-10-16T00:48:23;49.87;42.50;57.74;;
69613;Laerm;56819;52.382;4.758;2022-10-16T00:48:33;48.54;44.10;59.69;;
69613;Laerm;56819;52.382;4.758;2022-10-16T00:48:45;53.05;43.79;61.05;;
69613;Laerm;56819;52.382;4.758;2022-10-16T00:49:16;49.49;40.38;67.57;;
69613;Laerm;56819;52.382;4.758;2022-10-16T00:49:28;47.42;40.57;64.49;;
69613;Laerm;56819;52.382;4.758;2022-10-16T00:49:39;45.46;40.59;54.39;;
69613;Laerm;56819;52.382;4.758;2022-10-16T00:49:50;45.60;40.85;52.88;;
69613;Laerm;56819;52.382;4.758;2022-10-16T00:50:04;43.64;39.41;53.22;;
69613;Laerm;56819;52.382;4.758;2022-10-16T00:50:32;45.01;39.71;54.45;;
69613;Laerm;56819;52.382;4.758;2022-10-16T00:50:43;44.56;40.46;53.26;;
69613;Laerm;56819;52.382;4.758;2022-10-16T00:50:53;44.55;40.51;54.82;;
69613;Laerm;56819;52.382;4.758;2022-10-16T00:51:04;55.54;41.00;69.97;;
69613;Laerm;56819;52.382;4.758;2022-10-16T00:51:16;60.14;41.80;72.77;;
69613;Laerm;56819;52.382;4.758;2022-10-16T00:51:30;44.18;39.85;54.18;;
69613;Laerm;56819;52.382;4.758;2022-10-16T00:51:42;45.90;39.66;55.37;;
69613;Laerm;56819;52.382;4.758;2022-10-16T00:51:53;44.72;41.31;51.08;;
69613;Laerm;56819;52.382;4.758;2022-10-16T00:52:04;41.76;39.05;45.97;;
69613;Laerm;56819;52.382;4.758;2022-10-16T00:52:15;43.74;40.77;50.54;;
69613;Laerm;56819;52.382;4.758;2022-10-16T00:52:25;53.86;41.24;63.19;;
69613;Laerm;56819;52.382;4.758;2022-10-16T00:52:36;41.43;38.36;45.58;;
69613;Laerm;56819;52.382;4.758;2022-10-16T00:52:49;48.00;38.97;63.27;;
69613;Laerm;56819;52.382;4.758;2022-10-16T00:53:01;50.81;39.03;63.07;;
69613;Laerm;56819;52.382;4.758;2022-10-16T00:53:11;51.66;39.32;69.86;;
69613;Laerm;56819;52.382;4.758;2022-10-16T00:53:22;41.76;38.96;45.05;;
69613;Laerm;56819;52.382;4.758;2022-10-16T00:53:33;43.75;38.17;53.04;;
69613;Laerm;56819;52.382;4.758;2022-10-16T00:53:44;42.92;38.26;52.00;;
69613;Laerm;56819;52.382;4.758;2022-10-16T00:53:55;42.15;39.47;45.12;;
69613;Laerm;56819;52.382;4.758;2022-10-16T00:54:08;43.76;40.75;48.72;;
69613;Laerm;56819;52.382;4.758;2022-10-16T00:54:20;44.36;39.66;52.04;;
69613;Laerm;56819;52.382;4.758;2022-10-16T00:54:31;43.29;39.28;51.37;;
69613;Laerm;56819;52.382;4.758;2022-10-16T00:54:42;45.44;40.55;56.95;;
69613;Laerm;56819;52.382;4.758;2022-10-16T00:54:53;51.91;42.15;65.02;;
69613;Laerm;56819;52.382;4.758;2022-10-16T00:55:04;46.08;41.17;53.64;;
69613;Laerm;56819;52.382;4.758;2022-10-16T00:55:14;50.60;42.44;64.69;;
69613;Laerm;56819;52.382;4.758;2022-10-16T00:55:25;44.22;40.17;48.79;;
69613;Laerm;56819;52.382;4.758;2022-10-16T00:55:36;45.66;39.77;56.97;;
69613;Laerm;56819;52.382;4.758;2022-10-16T00:55:46;54.27;39.95;65.19;;
69613;Laerm;56819;52.382;4.758;2022-10-16T00:55:57;54.39;40.42;64.52;;
69613;Laerm;56819;52.382;4.758;2022-10-16T00:56:07;47.83;40.78;58.81;;
69613;Laerm;56819;52.382;4.758;2022-10-16T00:56:17;58.08;43.81;69.98;;
69613;Laerm;56819;52.382;4.758;2022-10-16T00:56:28;47.04;43.11;55.31;;
69613;Laerm;56819;52.382;4.758;2022-10-16T00:56:38;51.66;43.17;63.60;;
69613;Laerm;56819;52.382;4.758;2022-10-16T00:56:49;48.60;42.85;55.64;;
69613;Laerm;56819;52.382;4.758;2022-10-16T00:57:00;54.28;43.43;64.59;;
69613;Laerm;56819;52.382;4.758;2022-10-16T00:57:11;49.80;43.84;57.62;;
69613;Laerm;56819;52.382;4.758;2022-10-16T00:57:21;54.92;48.66;61.98;;
69613;Laerm;56819;52.382;4.758;2022-10-16T00:57:32;56.07;45.98;65.81;;
69613;Laerm;56819;52.382;4.758;2022-10-16T00:57:42;49.01;45.28;59.29;;
69613;Laerm;56819;52.382;4.758;2022-10-16T00:57:53;53.43;45.29;64.32;;
69613;Laerm;56819;52.382;4.758;2022-10-16T00:58:04;53.17;45.18;69.19;;
69613;Laerm;56819;52.382;4.758;2022-10-16T00:58:14;56.19;40.93;66.09;;
69613;Laerm;56819;52.382;4.758;2022-10-16T00:58:25;47.70;41.23;60.64;;
69613;Laerm;56819;52.382;4.758;2022-10-16T00:58:35;47.68;40.35;59.97;;
69613;Laerm;56819;52.382;4.758;2022-10-16T00:58:45;46.75;41.51;59.46;;
69613;Laerm;56819;52.382;4.758;2022-10-16T00:58:55;48.39;41.64;60.31;;
69613;Laerm;56819;52.382;4.758;2022-10-16T00:59:07;45.59;41.43;50.85;;
69613;Laerm;56819;52.382;4.758;2022-10-16T00:59:28;44.37;39.93;54.37;;
69613;Laerm;56819;52.382;4.758;2022-10-16T00:59:39;43.55;39.71;56.52;;
69613;Laerm;56819;52.382;4.758;2022-10-16T00:59:50;43.14;39.96;47.99;;
69613;Laerm;56819;52.382;4.758;2022-10-16T01:00:05;52.89;40.12;62.63;;
69613;Laerm;56819;52.382;4.758;2022-10-16T01:00:18;53.88;39.20;65.16;;
69613;Laerm;56819;52.382;4.758;2022-10-16T01:00:29;48.13;40.43;56.54;;
69613;Laerm;56819;52.382;4.758;2022-10-16T01:00:39;46.93;40.10;60.31;;
69613;Laerm;56819;52.382;4.758;2022-10-16T01:00:50;46.71;40.14;56.63;;
69613;Laerm;56819;52.382;4.758;2022-10-16T01:01:00;53.50;43.17;65.77;;
69613;Laerm;56819;52.382;4.758;2022-10-16T01:01:10;48.13;39.32;58.96;;
69613;Laerm;56819;52.382;4.758;2022-10-16T01:01:20;43.85;39.35;52.27;;
69613;Laerm;56819;52.382;4.758;2022-10-16T01:01:31;40.26;37.43;44.99;;
69613;Laerm;56819;52.382;4.758;2022-10-16T01:01:41;40.08;37.27;44.28;;
69613;Laerm;56819;52.382;4.758;2022-10-16T01:01:52;53.57;37.37;65.95;;
69613;Laerm;56819;52.382;4.758;2022-10-16T01:02:03;51.03;39.26;63.96;;
69613;Laerm;56819;52.382;4.758;2022-10-16T01:02:15;52.67;40.79;64.63;;
69613;Laerm;56819;52.382;4.758;2022-10-16T01:02:25;51.13;40.86;59.95;;
69613;Laerm;56819;52.382;4.758;2022-10-16T01:02:35;44.96;39.80;50.57;;
69613;Laerm;56819;52.382;4.758;2022-10-16T01:02:52;48.46;40.33;59.58;;
69613;Laerm;56819;52.382;4.758;2022-10-16T01:03:22;52.91;40.47;65.75;;